createdAt,value
2019-02-14T00:01:38.998Z,3.90
2019-02-14T00:04:08.227Z,3.90
2019-02-14T00:06:37.481Z,3.90
2019-02-14T00:09:07.491Z,3.90
2019-02-14T00:11:37.085Z,3.80
2019-02-14T00:14:06.338Z,3.80
2019-02-14T00:16:35.961Z,3.80
2019-02-14T00:19:05.723Z,3.80
2019-02-14T00:21:35.228Z,3.80
2019-02-14T00:24:04.836Z,3.80
2019-02-14T00:26:34.652Z,3.90
2019-02-14T00:29:04.094Z,3.90
2019-02-14T00:31:33.294Z,3.90
2019-02-14T00:34:02.863Z,3.90
2019-02-14T00:36:32.443Z,3.90
2019-02-14T00:39:01.624Z,3.80
2019-02-14T00:41:30.840Z,3.80
2019-02-14T00:44:00.031Z,3.80
2019-02-14T00:46:29.331Z,3.80
2019-02-14T00:48:58.888Z,3.70
2019-02-14T00:51:28.342Z,3.70
2019-02-14T00:53:57.586Z,3.70
2019-02-14T00:56:26.852Z,3.70
2019-02-14T00:58:56.048Z,3.70
2019-02-14T01:01:25.332Z,3.70
2019-02-14T01:03:54.495Z,3.60
2019-02-14T01:06:23.692Z,3.60
2019-02-14T01:08:53.138Z,3.60
2019-02-14T01:11:22.735Z,3.60
2019-02-14T01:13:51.991Z,3.60
2019-02-14T01:16:21.307Z,3.60
2019-02-14T01:18:50.753Z,3.60
2019-02-14T01:21:19.916Z,3.50
2019-02-14T01:23:49.105Z,3.50
2019-02-14T01:26:18.643Z,3.50
2019-02-14T01:28:48.555Z,3.50
2019-02-14T01:31:17.875Z,3.50
2019-02-14T01:33:47.429Z,3.50
2019-02-14T01:36:16.687Z,3.50
2019-02-14T01:38:45.857Z,3.60
2019-02-14T01:41:15.125Z,3.60
2019-02-14T01:43:44.321Z,3.60
2019-02-14T01:46:13.477Z,3.60
2019-02-14T01:48:42.975Z,3.60
2019-02-14T01:51:12.227Z,3.60
2019-02-14T01:53:41.847Z,3.60
2019-02-14T01:56:11.359Z,3.50
2019-02-14T01:58:40.959Z,3.50
2019-02-14T02:01:10.136Z,3.50
2019-02-14T02:03:39.286Z,3.60
2019-02-14T02:06:08.522Z,3.60
2019-02-14T02:08:37.684Z,3.60
2019-02-14T02:11:07.442Z,3.60
2019-02-14T02:13:36.690Z,3.50
2019-02-14T02:16:05.974Z,3.50
2019-02-14T02:18:36.788Z,3.40
2019-02-14T02:21:05.957Z,3.40
2019-02-14T02:23:35.340Z,3.40
2019-02-14T02:26:04.577Z,3.30
2019-02-14T02:28:34.232Z,3.20
2019-02-14T02:31:03.776Z,3.10
2019-02-14T02:33:32.959Z,3.10
2019-02-14T02:36:02.492Z,3.10
2019-02-14T02:38:31.742Z,3.00
2019-02-14T02:41:00.936Z,3.10
2019-02-14T02:43:30.110Z,3.10
2019-02-14T02:45:59.290Z,3.00
2019-02-14T02:48:28.898Z,3.00
2019-02-14T02:50:58.148Z,3.00
2019-02-14T02:53:27.413Z,3.00
2019-02-14T02:55:57.464Z,3.10
2019-02-14T02:58:26.722Z,3.10
2019-02-14T03:00:55.928Z,3.10
2019-02-14T03:03:25.119Z,3.10
2019-02-14T03:05:54.360Z,3.10
2019-02-14T03:08:23.630Z,3.10
2019-02-14T03:10:54.209Z,3.10
2019-02-14T03:13:24.125Z,3.10
2019-02-14T03:15:53.299Z,3.10
2019-02-14T03:18:22.549Z,3.10
2019-02-14T03:20:51.715Z,3.00
2019-02-14T03:23:21.013Z,3.00
2019-02-14T03:25:50.341Z,3.00
2019-02-14T03:28:19.582Z,3.00
2019-02-14T03:30:48.819Z,3.00
2019-02-14T03:33:18.434Z,3.00
2019-02-14T03:35:47.634Z,2.90
2019-02-14T03:38:16.809Z,2.80
2019-02-14T03:40:46.284Z,2.80
2019-02-14T03:43:15.806Z,2.70
2019-02-14T03:45:45.423Z,2.80
2019-02-14T03:48:14.630Z,3.00
2019-02-14T03:50:43.891Z,3.10
2019-02-14T03:53:13.139Z,3.10
2019-02-14T03:55:42.308Z,3.10
2019-02-14T03:58:11.486Z,3.10
2019-02-14T04:00:40.737Z,3.10
2019-02-14T04:03:10.000Z,3.00
2019-02-14T04:05:39.218Z,2.90
2019-02-14T04:08:08.696Z,2.90
2019-02-14T04:10:37.852Z,2.90
2019-02-14T04:13:07.036Z,2.90
2019-02-14T04:15:36.784Z,2.90
2019-02-14T04:18:06.054Z,2.90
2019-02-14T04:20:35.628Z,2.90
2019-02-14T04:23:05.173Z,3.00
2019-02-14T04:25:34.705Z,3.00
2019-02-14T04:28:04.276Z,3.00
2019-02-14T04:30:33.483Z,3.10
2019-02-14T04:33:03.116Z,3.10
2019-02-14T04:35:32.380Z,3.10
2019-02-14T04:38:01.549Z,3.10
2019-02-14T04:40:33.586Z,3.10
2019-02-14T04:43:01.662Z,3.10
2019-02-14T04:45:30.841Z,3.10
2019-02-14T04:48:00.333Z,3.10
2019-02-14T04:50:30.034Z,3.10
2019-02-14T04:52:59.641Z,3.10
2019-02-14T04:55:28.783Z,3.00
2019-02-14T04:57:58.021Z,3.00
2019-02-14T05:00:27.218Z,3.00
2019-02-14T05:02:56.348Z,3.00
2019-02-14T05:05:25.612Z,3.00
2019-02-14T05:07:55.245Z,2.90
2019-02-14T05:10:24.505Z,2.80
2019-02-14T05:12:53.781Z,2.70
2019-02-14T05:15:23.381Z,2.70
2019-02-14T05:17:52.571Z,2.60
2019-02-14T05:20:22.130Z,2.50
2019-02-14T05:22:51.368Z,2.40
2019-02-14T05:25:20.609Z,2.30
2019-02-14T05:27:50.146Z,2.20
2019-02-14T05:30:19.321Z,2.20
2019-02-14T05:32:48.569Z,2.10
2019-02-14T05:35:17.751Z,2.10
2019-02-14T05:37:47.243Z,2.10
2019-02-14T05:40:16.418Z,2.10
2019-02-14T05:42:45.940Z,2.10
2019-02-14T05:45:15.098Z,2.10
2019-02-14T05:47:44.533Z,2.10
2019-02-14T05:50:14.413Z,2.00
2019-02-14T05:52:44.036Z,2.00
2019-02-14T05:55:13.632Z,1.90
2019-02-14T05:57:42.866Z,1.80
2019-02-14T06:00:13.081Z,1.80
2019-02-14T06:02:42.254Z,1.80
2019-02-14T06:05:11.508Z,1.80
2019-02-14T06:07:41.057Z,1.80
2019-02-14T06:10:10.313Z,1.90
2019-02-14T06:12:39.495Z,1.90
2019-02-14T06:15:09.335Z,1.90
2019-02-14T06:17:38.527Z,1.90
2019-02-14T06:20:08.574Z,1.80
2019-02-14T06:22:38.001Z,1.80
2019-02-14T06:25:07.666Z,1.80
2019-02-14T06:27:37.564Z,1.80
2019-02-14T06:30:08.502Z,1.90
2019-02-14T06:32:37.751Z,2.00
2019-02-14T06:35:07.443Z,2.20
2019-02-14T06:37:36.727Z,2.30
2019-02-14T06:40:07.347Z,2.40
2019-02-14T06:42:37.643Z,2.50
2019-02-14T06:45:08.629Z,2.50
2019-02-14T06:47:37.895Z,2.40
2019-02-14T06:50:08.331Z,2.50
2019-02-14T06:52:37.583Z,2.50
2019-02-14T06:55:07.267Z,2.60
2019-02-14T06:57:36.527Z,2.60
2019-02-14T07:00:06.631Z,2.60
2019-02-14T07:02:35.803Z,2.60
2019-02-14T07:05:05.372Z,2.60
2019-02-14T07:07:34.605Z,2.60
2019-02-14T07:10:04.719Z,2.60
2019-02-14T07:12:34.189Z,2.60
2019-02-14T07:15:03.832Z,2.50
2019-02-14T07:17:33.087Z,2.50
2019-02-14T07:20:02.247Z,2.40
2019-02-14T07:22:31.753Z,2.40
2019-02-14T07:25:01.057Z,2.30
2019-02-14T07:27:30.293Z,2.30
2019-02-14T07:29:59.525Z,2.40
2019-02-14T07:32:28.832Z,2.40
2019-02-14T07:34:58.044Z,2.50
2019-02-14T07:37:27.337Z,2.60
2019-02-14T07:39:56.524Z,2.70
2019-02-14T07:42:26.056Z,2.80
2019-02-14T07:44:55.322Z,2.90
2019-02-14T07:47:24.620Z,2.90
2019-02-14T07:49:54.118Z,2.90
2019-02-14T07:52:25.370Z,3.00
2019-02-14T07:54:54.804Z,3.00
2019-02-14T07:57:24.364Z,3.00
2019-02-14T07:59:53.511Z,3.00
2019-02-14T08:02:22.679Z,3.10
2019-02-14T08:04:51.853Z,3.20
2019-02-14T08:07:21.025Z,3.30
2019-02-14T08:09:50.199Z,3.40
2019-02-14T08:12:19.456Z,3.60
2019-02-14T08:14:49.318Z,3.80
2019-02-14T08:17:18.941Z,4.00
2019-02-14T08:19:48.464Z,4.10
2019-02-14T08:22:17.694Z,4.20
2019-02-14T08:24:48.945Z,4.30
2019-02-14T08:27:18.379Z,4.40
2019-02-14T08:29:47.909Z,4.30
2019-02-14T08:32:17.069Z,4.30
2019-02-14T08:34:46.612Z,4.40
2019-02-14T08:37:15.833Z,4.50
2019-02-14T08:39:45.135Z,4.50
2019-02-14T08:42:14.320Z,4.50
2019-02-14T08:44:43.566Z,4.60
2019-02-14T08:47:12.813Z,4.60
2019-02-14T08:49:41.983Z,4.70
2019-02-14T08:52:11.569Z,4.70
2019-02-14T08:54:40.718Z,4.80
2019-02-14T08:57:09.995Z,4.90
2019-02-14T08:59:39.574Z,5.00
2019-02-14T09:02:08.833Z,5.10
2019-02-14T09:04:38.071Z,5.10
2019-02-14T09:07:07.672Z,5.30
2019-02-14T09:09:56.600Z,5.40
2019-02-14T09:12:26.433Z,5.50
2019-02-14T09:14:55.634Z,5.60
2019-02-14T09:17:25.264Z,5.70
2019-02-14T09:19:54.803Z,5.70
2019-02-14T09:22:24.056Z,5.80
2019-02-14T09:24:53.869Z,5.90
2019-02-14T09:27:23.214Z,5.90
2019-02-14T09:29:52.786Z,6.10
2019-02-14T09:32:25.670Z,6.20
2019-02-14T09:34:54.946Z,6.30
2019-02-14T09:37:24.160Z,6.50
2019-02-14T09:39:53.408Z,6.70
2019-02-14T09:42:41.674Z,7.10
2019-02-14T09:45:11.565Z,7.40
2019-02-14T09:47:41.135Z,8.10
2019-02-14T09:50:11.280Z,8.80
2019-02-14T09:52:40.992Z,9.70
2019-02-14T09:55:10.683Z,10.30
2019-02-14T09:57:39.962Z,10.40
2019-02-14T10:00:14.932Z,10.70
2019-02-14T10:02:44.207Z,10.90
2019-02-14T10:05:14.113Z,11.40
2019-02-14T10:07:43.746Z,11.70
2019-02-14T10:10:15.201Z,12.00
2019-02-14T10:12:44.630Z,12.30
2019-02-14T10:15:14.172Z,12.70
2019-02-14T10:17:43.423Z,13.00
2019-02-14T10:20:14.530Z,13.20
2019-02-14T10:22:44.047Z,13.30
2019-02-14T10:25:13.677Z,13.40
2019-02-14T10:27:43.286Z,13.50
2019-02-14T10:30:15.028Z,13.90
2019-02-14T10:32:44.639Z,14.30
2019-02-14T10:35:13.915Z,14.60
2019-02-14T10:37:43.529Z,14.90
2019-02-14T10:40:13.490Z,14.90
2019-02-14T10:42:42.674Z,15.30
2019-02-14T10:45:14.125Z,15.50
2019-02-14T10:47:43.309Z,15.60
2019-02-14T10:50:12.471Z,15.80
2019-02-14T10:52:41.662Z,15.90
2019-02-14T10:55:11.834Z,16.30
2019-02-14T10:57:41.057Z,16.50
2019-02-14T11:00:18.450Z,16.70
2019-02-14T11:02:48.691Z,16.90
2019-02-14T11:05:18.598Z,17.50
2019-02-14T11:07:47.779Z,17.80
2019-02-14T11:10:17.080Z,18.10
2019-02-14T11:12:46.268Z,18.60
2019-02-14T11:15:17.048Z,18.90
2019-02-14T11:17:48.932Z,19.20
2019-02-14T11:20:18.356Z,19.80
2019-02-14T11:22:49.008Z,19.80
2019-02-14T11:25:21.431Z,20.10
2019-02-14T11:27:51.379Z,20.20
2019-02-14T11:30:21.062Z,20.20
2019-02-14T11:32:50.577Z,20.40
2019-02-14T11:35:19.748Z,20.20
2019-02-14T11:37:48.988Z,20.30
2019-02-14T11:40:18.203Z,20.60
2019-02-14T11:42:47.434Z,21.00
2019-02-14T11:45:17.579Z,20.70
2019-02-14T11:47:47.104Z,20.80
2019-02-14T11:50:16.716Z,20.90
2019-02-14T11:52:45.955Z,21.40
2019-02-14T11:55:15.163Z,21.70
2019-02-14T11:57:44.415Z,21.70
2019-02-14T12:00:17.555Z,21.90
2019-02-14T12:02:55.014Z,21.80
2019-02-14T12:05:18.847Z,22.10
2019-02-14T12:07:48.056Z,22.30
2019-02-14T12:10:17.292Z,22.50
2019-02-14T12:12:46.480Z,22.80
2019-02-14T12:15:16.033Z,22.80
2019-02-14T12:17:45.300Z,23.30
2019-02-14T12:20:14.547Z,23.50
2019-02-14T12:22:46.726Z,24.10
2019-02-14T12:25:15.124Z,24.10
2019-02-14T12:27:44.793Z,23.70
2019-02-14T12:30:14.921Z,24.00
2019-02-14T12:32:44.229Z,23.90
2019-02-14T12:35:14.022Z,23.70
2019-02-14T12:37:43.285Z,23.90
2019-02-14T12:40:13.107Z,23.90
2019-02-14T12:42:42.684Z,24.50
2019-02-14T12:45:20.326Z,24.30
2019-02-14T12:47:44.768Z,24.10
2019-02-14T12:50:14.294Z,23.60
2019-02-14T12:52:43.469Z,23.90
2019-02-14T12:55:12.796Z,24.30
2019-02-14T12:57:42.067Z,24.10
2019-02-14T13:00:17.047Z,24.30
2019-02-14T13:02:46.296Z,23.90
2019-02-14T13:05:16.129Z,23.70
2019-02-14T13:07:45.935Z,24.30
2019-02-14T13:10:16.044Z,24.90
2019-02-14T13:12:45.296Z,25.20
2019-02-14T13:15:16.954Z,25.20
2019-02-14T13:17:46.528Z,25.00
2019-02-14T13:20:15.765Z,25.00
2019-02-14T13:22:45.002Z,25.60
2019-02-14T13:25:14.742Z,25.60
2019-02-14T13:27:44.442Z,25.30
2019-02-14T13:30:16.509Z,25.30
2019-02-14T13:32:45.672Z,25.40
2019-02-14T13:35:14.910Z,25.80
2019-02-14T13:37:44.109Z,26.00
2019-02-14T13:40:13.535Z,26.10
2019-02-14T13:42:43.074Z,26.40
2019-02-14T13:45:13.991Z,26.70
2019-02-14T13:47:43.260Z,26.70
2019-02-14T13:50:12.636Z,25.90
2019-02-14T13:52:41.871Z,26.00
2019-02-14T13:55:11.559Z,26.30
2019-02-14T13:57:40.857Z,26.20
2019-02-14T14:00:18.965Z,26.20
2019-02-14T14:02:48.289Z,26.50
2019-02-14T14:05:17.878Z,26.10
2019-02-14T14:07:47.115Z,26.20
2019-02-14T14:10:16.389Z,26.20
2019-02-14T14:12:45.664Z,25.80
2019-02-14T14:15:14.903Z,26.00
2019-02-14T14:17:44.169Z,25.90
2019-02-14T14:20:13.451Z,26.00
2019-02-14T14:22:42.633Z,26.00
2019-02-14T14:25:12.565Z,26.60
2019-02-14T14:27:42.547Z,26.70
2019-02-14T14:30:11.953Z,26.70
2019-02-14T14:32:41.288Z,26.50
2019-02-14T14:35:11.447Z,26.60
2019-02-14T14:37:40.719Z,26.40
2019-02-14T14:40:11.128Z,26.20
2019-02-14T14:43:11.721Z,26.00
2019-02-14T14:45:58.615Z,26.20
2019-02-14T14:48:34.048Z,26.00
2019-02-14T14:51:03.604Z,26.00
2019-02-14T14:53:32.792Z,25.50
2019-02-14T14:56:01.996Z,25.20
2019-02-14T14:58:31.168Z,24.70
2019-02-14T15:01:00.732Z,24.40
2019-02-14T15:03:30.002Z,23.60
2019-02-14T15:05:59.199Z,22.30
2019-02-14T15:08:28.424Z,20.90
2019-02-14T15:10:57.606Z,19.10
2019-02-14T15:13:26.765Z,17.80
2019-02-14T15:15:56.282Z,17.00
2019-02-14T15:18:26.080Z,16.40
2019-02-14T15:20:55.286Z,16.10
2019-02-14T15:23:24.881Z,15.80
2019-02-14T15:25:54.235Z,15.50
2019-02-14T15:28:23.625Z,15.30
2019-02-14T15:30:52.884Z,15.20
2019-02-14T15:33:22.210Z,15.10
2019-02-14T15:35:51.679Z,15.00
2019-02-14T15:38:20.973Z,14.90
2019-02-14T15:40:50.540Z,14.70
2019-02-14T15:43:19.819Z,14.70
2019-02-14T15:45:49.022Z,14.50
2019-02-14T15:48:18.390Z,14.40
2019-02-14T15:50:47.703Z,14.30
2019-02-14T15:53:19.153Z,14.30
2019-02-14T15:55:49.164Z,14.20
2019-02-14T15:58:18.735Z,14.10
2019-02-14T16:00:49.536Z,14.00
2019-02-14T16:03:19.620Z,13.90
2019-02-14T16:05:48.958Z,13.80
2019-02-14T16:08:19.627Z,13.60
2019-02-14T16:10:53.131Z,13.50
2019-02-14T16:13:20.637Z,13.50
2019-02-14T16:15:50.799Z,13.40
2019-02-14T16:18:21.220Z,13.30
2019-02-14T16:20:51.096Z,13.40
2019-02-14T16:23:20.293Z,13.30
2019-02-14T16:25:51.662Z,13.20
2019-02-14T16:28:21.312Z,13.20
2019-02-14T16:30:52.388Z,13.10
2019-02-14T16:33:23.544Z,13.00
2019-02-14T16:35:52.682Z,12.90
2019-02-14T16:38:21.952Z,12.80
2019-02-14T16:40:51.153Z,12.70
2019-02-14T16:43:20.690Z,12.60
2019-02-14T16:45:49.910Z,12.50
2019-02-14T16:48:19.552Z,12.40
2019-02-14T16:50:48.714Z,12.30
2019-02-14T16:53:17.909Z,12.30
2019-02-14T16:55:47.420Z,12.10
2019-02-14T16:58:16.698Z,12.10
2019-02-14T17:00:46.183Z,11.90
2019-02-14T17:03:15.448Z,11.80
2019-02-14T17:05:44.673Z,11.70
2019-02-14T17:08:13.964Z,11.70
2019-02-14T17:10:43.195Z,11.50
2019-02-14T17:13:12.831Z,11.40
2019-02-14T17:15:42.090Z,11.30
2019-02-14T17:18:12.003Z,11.20
2019-02-14T17:20:41.715Z,11.10
2019-02-14T17:23:10.904Z,11.00
2019-02-14T17:25:40.209Z,10.90
2019-02-14T17:28:09.509Z,10.80
2019-02-14T17:30:39.180Z,10.70
2019-02-14T17:33:08.526Z,10.50
2019-02-14T17:35:38.106Z,10.30
2019-02-14T17:38:07.367Z,10.10
2019-02-14T17:40:45.635Z,9.90
2019-02-14T17:43:08.160Z,9.80
2019-02-14T17:45:37.439Z,9.70
2019-02-14T17:48:06.791Z,9.60
2019-02-14T17:50:36.087Z,9.50
2019-02-14T17:53:05.750Z,9.50
2019-02-14T17:55:35.376Z,9.50
2019-02-14T17:58:04.645Z,9.50
2019-02-14T18:00:33.996Z,9.50
2019-02-14T18:03:03.240Z,9.30
2019-02-14T18:05:32.855Z,9.30
2019-02-14T18:08:02.384Z,9.20
2019-02-14T18:10:31.648Z,9.20
2019-02-14T18:13:00.917Z,9.20
2019-02-14T18:15:30.355Z,9.20
2019-02-14T18:17:59.629Z,9.20
2019-02-14T18:20:28.962Z,9.20
2019-02-14T18:22:58.238Z,9.10
2019-02-14T18:25:27.861Z,9.00
2019-02-14T18:27:57.054Z,8.80
2019-02-14T18:30:26.734Z,8.60
2019-02-14T18:32:56.018Z,8.50
2019-02-14T18:35:25.267Z,8.30
2019-02-14T18:37:54.524Z,8.20
2019-02-14T18:40:24.080Z,8.10
2019-02-14T18:42:53.888Z,8.00
2019-02-14T18:45:23.160Z,7.90
2019-02-14T18:47:52.420Z,7.80
2019-02-14T18:50:21.769Z,7.70
2019-02-14T18:52:51.667Z,7.60
2019-02-14T18:55:20.917Z,7.60
2019-02-14T18:57:50.826Z,7.50
2019-02-14T19:00:20.102Z,7.40
2019-02-14T19:02:49.696Z,7.30
2019-02-14T19:05:19.267Z,7.30
2019-02-14T19:07:48.635Z,7.20
2019-02-14T19:10:17.976Z,7.10
2019-02-14T19:12:47.294Z,7.00
2019-02-14T19:15:16.541Z,7.00
2019-02-14T19:17:45.842Z,6.90
2019-02-14T19:20:15.162Z,6.90
2019-02-14T19:22:44.437Z,6.80
2019-02-14T19:25:13.917Z,6.80
2019-02-14T19:27:43.161Z,6.70
2019-02-14T19:30:12.731Z,6.70
2019-02-14T19:32:42.019Z,6.60
2019-02-14T19:35:11.526Z,6.50
2019-02-14T19:37:40.727Z,6.50
2019-02-14T19:40:10.670Z,6.50
2019-02-14T19:42:40.019Z,6.40
2019-02-14T19:45:09.564Z,6.40
2019-02-14T19:47:38.839Z,6.30
2019-02-14T19:50:08.907Z,6.30
2019-02-14T19:52:38.118Z,6.20
2019-02-14T19:55:07.992Z,6.20
2019-02-14T19:57:37.874Z,6.10
2019-02-14T20:00:08.919Z,6.10
2019-02-14T20:02:38.414Z,6.00
2019-02-14T20:05:10.451Z,6.00
2019-02-14T20:07:40.019Z,6.00
2019-02-14T20:10:10.644Z,6.00
2019-02-14T20:12:40.100Z,5.90
2019-02-14T20:15:12.189Z,5.80
2019-02-14T20:17:41.518Z,5.80
2019-02-14T20:20:11.157Z,5.80
2019-02-14T20:22:40.344Z,5.70
2019-02-14T20:25:10.960Z,5.70
2019-02-14T20:27:40.668Z,5.70
2019-02-14T20:30:10.320Z,5.60
2019-02-14T20:32:39.475Z,5.60
2019-02-14T20:35:09.270Z,5.60
2019-02-14T20:37:38.725Z,5.60
2019-02-14T20:40:08.531Z,5.50
2019-02-14T20:42:37.765Z,5.40
2019-02-14T20:45:07.629Z,5.40
2019-02-14T20:47:36.853Z,5.40
2019-02-14T20:50:06.802Z,5.30
2019-02-14T20:52:36.381Z,5.30
2019-02-14T20:55:06.338Z,5.30
2019-02-14T20:57:35.635Z,5.20
2019-02-14T21:00:06.872Z,5.20
2019-02-14T21:02:36.435Z,5.20
2019-02-14T21:05:05.923Z,5.10
2019-02-14T21:07:35.239Z,5.10
2019-02-14T21:10:05.092Z,5.10
2019-02-14T21:12:34.639Z,5.00
2019-02-14T21:15:03.912Z,5.00
2019-02-14T21:17:33.877Z,5.00
2019-02-14T21:20:03.174Z,4.90
2019-02-14T21:22:32.341Z,4.90
2019-02-14T21:25:01.883Z,4.80
2019-02-14T21:27:31.159Z,4.80
2019-02-14T21:30:00.495Z,4.80
2019-02-14T21:32:29.681Z,4.80
2019-02-14T21:34:58.932Z,4.70
2019-02-14T21:37:28.724Z,4.70
2019-02-14T21:42:43.668Z,4.70
2019-02-14T21:45:13.498Z,4.60
2019-02-14T21:47:42.841Z,4.60
2019-02-14T21:50:12.390Z,4.60
2019-02-14T21:52:42.165Z,4.50
2019-02-14T21:55:11.420Z,4.50
2019-02-14T21:57:40.973Z,4.50
2019-02-14T22:00:15.410Z,4.50
2019-02-14T22:02:45.234Z,4.40
2019-02-14T22:05:14.859Z,4.40
2019-02-14T22:07:44.107Z,4.40
2019-02-14T22:10:13.361Z,4.30
2019-02-14T22:12:43.948Z,4.30
2019-02-14T22:15:15.397Z,4.30
2019-02-14T22:17:44.682Z,4.20
2019-02-14T22:20:14.220Z,4.20
2019-02-14T22:22:43.800Z,4.20
2019-02-14T22:25:13.404Z,4.20
2019-02-14T22:27:42.675Z,4.10
2019-02-14T22:30:15.069Z,4.10
2019-02-14T22:32:44.677Z,4.00
2019-02-14T22:35:14.149Z,4.00
2019-02-14T22:37:43.481Z,4.00
2019-02-14T22:40:12.691Z,4.00
2019-02-14T22:42:47.324Z,4.00
2019-02-14T22:45:13.740Z,4.00
2019-02-14T22:47:43.964Z,3.90
2019-02-14T22:50:14.043Z,3.90
2019-02-14T22:52:43.365Z,3.90
2019-02-14T22:55:12.548Z,3.80
2019-02-14T22:57:41.781Z,3.80
2019-02-14T23:00:21.129Z,3.80
2019-02-14T23:02:50.967Z,3.80
2019-02-14T23:05:20.517Z,3.80
2019-02-14T23:07:50.122Z,3.70
2019-02-14T23:10:19.369Z,3.70
2019-02-14T23:12:55.441Z,3.70
2019-02-14T23:15:19.631Z,3.70
2019-02-14T23:17:49.189Z,3.70
2019-02-14T23:20:18.435Z,3.70
2019-02-14T23:22:47.660Z,3.70
2019-02-14T23:25:16.892Z,3.70
2019-02-14T23:27:46.140Z,3.60
2019-02-14T23:30:15.641Z,3.60
2019-02-14T23:32:44.902Z,3.60
2019-02-14T23:35:14.061Z,3.60
2019-02-14T23:37:43.576Z,3.60
2019-02-14T23:40:13.464Z,3.60
2019-02-14T23:42:42.654Z,3.60
2019-02-14T23:45:12.768Z,3.60
2019-02-14T23:47:41.998Z,3.60
2019-02-14T23:50:11.186Z,3.60
2019-02-14T23:52:40.672Z,3.70
2019-02-14T23:55:10.072Z,3.80
2019-02-14T23:57:39.540Z,3.80
